sensor_id;sensor_type;location;lat;lon;timestamp;temperature;humidity
27306;DHT22;14792;50.886;6.468;2022-09-27T00:00:46;10.20;99.90
27306;DHT22;14792;50.886;6.468;2022-09-27T00:03:47;10.20;99.90
27306;DHT22;14792;50.886;6.468;2022-09-27T00:06:49;10.10;99.90
27306;DHT22;14792;50.886;6.468;2022-09-27T00:09:50;10.10;99.90
27306;DHT22;14792;50.886;6.468;2022-09-27T00:12:52;10.00;99.90
27306;DHT22;14792;50.886;6.468;2022-09-27T00:16:00;10.00;99.90
27306;DHT22;14792;50.886;6.468;2022-09-27T00:19:02;10.00;99.90
27306;DHT22;14792;50.886;6.468;2022-09-27T00:22:02;10.00;99.90
27306;DHT22;14792;50.886;6.468;2022-09-27T00:25:04;10.00;99.90
27306;DHT22;14792;50.886;6.468;2022-09-27T00:28:06;10.00;99.90
27306;DHT22;14792;50.886;6.468;2022-09-27T00:31:13;9.90;99.90
27306;DHT22;14792;50.886;6.468;2022-09-27T00:34:21;10.00;99.90
27306;DHT22;14792;50.886;6.468;2022-09-27T00:37:22;9.90;99.90
27306;DHT22;14792;50.886;6.468;2022-09-27T00:40:23;9.90;99.90
27306;DHT22;14792;50.886;6.468;2022-09-27T00:43:25;9.90;99.90
27306;DHT22;14792;50.886;6.468;2022-09-27T00:46:28;9.90;99.90
27306;DHT22;14792;50.886;6.468;2022-09-27T00:49:37;9.90;99.90
27306;DHT22;14792;50.886;6.468;2022-09-27T00:52:42;9.80;99.90
27306;DHT22;14792;50.886;6.468;2022-09-27T00:55:45;9.90;99.90
27306;DHT22;14792;50.886;6.468;2022-09-27T00:58:43;9.90;99.90
27306;DHT22;14792;50.886;6.468;2022-09-27T01:01:43;9.80;99.90
27306;DHT22;14792;50.886;6.468;2022-09-27T01:04:45;9.90;99.90
27306;DHT22;14792;50.886;6.468;2022-09-27T01:07:46;9.90;99.90
27306;DHT22;14792;50.886;6.468;2022-09-27T01:11:01;9.90;99.90
27306;DHT22;14792;50.886;6.468;2022-09-27T01:27:37;9.90;99.90
27306;DHT22;14792;50.886;6.468;2022-09-27T01:30:41;9.90;99.90
27306;DHT22;14792;50.886;6.468;2022-09-27T01:40:19;9.80;99.90
27306;DHT22;14792;50.886;6.468;2022-09-27T01:43:47;9.90;99.90
27306;DHT22;14792;50.886;6.468;2022-09-27T01:46:48;9.90;99.90
27306;DHT22;14792;50.886;6.468;2022-09-27T01:49:52;9.90;99.90
27306;DHT22;14792;50.886;6.468;2022-09-27T01:52:55;9.80;99.90
27306;DHT22;14792;50.886;6.468;2022-09-27T01:55:55;9.90;99.90
27306;DHT22;14792;50.886;6.468;2022-09-27T01:58:58;9.80;99.90
27306;DHT22;14792;50.886;6.468;2022-09-27T02:01:59;9.80;99.90
27306;DHT22;14792;50.886;6.468;2022-09-27T02:04:59;9.80;99.90
27306;DHT22;14792;50.886;6.468;2022-09-27T02:08:05;9.80;99.90
27306;DHT22;14792;50.886;6.468;2022-09-27T02:11:07;9.70;99.90
27306;DHT22;14792;50.886;6.468;2022-09-27T02:14:19;9.80;99.90
27306;DHT22;14792;50.886;6.468;2022-09-27T02:17:43;9.70;99.90
27306;DHT22;14792;50.886;6.468;2022-09-27T02:20:53;9.70;99.90
27306;DHT22;14792;50.886;6.468;2022-09-27T02:23:45;9.70;99.90
27306;DHT22;14792;50.886;6.468;2022-09-27T02:26:45;9.60;99.90
27306;DHT22;14792;50.886;6.468;2022-09-27T02:29:48;9.60;99.90
27306;DHT22;14792;50.886;6.468;2022-09-27T02:32:48;9.50;99.90
27306;DHT22;14792;50.886;6.468;2022-09-27T02:35:50;9.50;99.90
27306;DHT22;14792;50.886;6.468;2022-09-27T02:38:52;9.40;99.90
27306;DHT22;14792;50.886;6.468;2022-09-27T02:41:54;9.40;99.90
27306;DHT22;14792;50.886;6.468;2022-09-27T02:44:55;9.40;99.90
27306;DHT22;14792;50.886;6.468;2022-09-27T02:48:09;9.40;99.90
27306;DHT22;14792;50.886;6.468;2022-09-27T02:54:23;9.40;99.90
27306;DHT22;14792;50.886;6.468;2022-09-27T02:57:46;9.40;99.90
27306;DHT22;14792;50.886;6.468;2022-09-27T03:04:12;9.40;99.90
27306;DHT22;14792;50.886;6.468;2022-09-27T03:07:11;9.30;99.90
27306;DHT22;14792;50.886;6.468;2022-09-27T03:10:16;9.40;99.90
27306;DHT22;14792;50.886;6.468;2022-09-27T03:13:17;9.40;99.90
27306;DHT22;14792;50.886;6.468;2022-09-27T03:16:19;9.30;99.90
27306;DHT22;14792;50.886;6.468;2022-09-27T03:19:20;9.30;99.90
27306;DHT22;14792;50.886;6.468;2022-09-27T03:22:22;9.30;99.90
27306;DHT22;14792;50.886;6.468;2022-09-27T03:25:24;9.30;99.90
27306;DHT22;14792;50.886;6.468;2022-09-27T03:28:25;9.30;99.90
27306;DHT22;14792;50.886;6.468;2022-09-27T03:31:27;9.30;99.90
27306;DHT22;14792;50.886;6.468;2022-09-27T03:34:28;9.30;99.90
27306;DHT22;14792;50.886;6.468;2022-09-27T03:37:30;9.20;99.90
27306;DHT22;14792;50.886;6.468;2022-09-27T03:40:32;9.30;99.90
27306;DHT22;14792;50.886;6.468;2022-09-27T03:43:33;9.30;99.90
27306;DHT22;14792;50.886;6.468;2022-09-27T03:46:35;9.20;99.90
27306;DHT22;14792;50.886;6.468;2022-09-27T03:49:36;9.30;99.90
27306;DHT22;14792;50.886;6.468;2022-09-27T03:52:38;9.20;99.90
27306;DHT22;14792;50.886;6.468;2022-09-27T03:55:39;9.20;99.90
27306;DHT22;14792;50.886;6.468;2022-09-27T03:58:41;9.20;99.90
27306;DHT22;14792;50.886;6.468;2022-09-27T04:01:43;9.10;99.90
27306;DHT22;14792;50.886;6.468;2022-09-27T04:04:44;9.10;99.90
27306;DHT22;14792;50.886;6.468;2022-09-27T04:07:46;9.10;99.90
27306;DHT22;14792;50.886;6.468;2022-09-27T04:10:47;9.10;99.90
27306;DHT22;14792;50.886;6.468;2022-09-27T04:13:49;9.10;99.90
27306;DHT22;14792;50.886;6.468;2022-09-27T04:16:50;9.00;99.90
27306;DHT22;14792;50.886;6.468;2022-09-27T04:19:52;9.00;99.90
27306;DHT22;14792;50.886;6.468;2022-09-27T04:22:54;9.00;99.90
27306;DHT22;14792;50.886;6.468;2022-09-27T04:25:55;9.00;99.90
27306;DHT22;14792;50.886;6.468;2022-09-27T04:28:57;9.00;99.90
27306;DHT22;14792;50.886;6.468;2022-09-27T04:31:58;8.90;99.90
27306;DHT22;14792;50.886;6.468;2022-09-27T04:35:00;8.90;99.90
27306;DHT22;14792;50.886;6.468;2022-09-27T04:38:19;8.90;99.90
27306;DHT22;14792;50.886;6.468;2022-09-27T04:41:21;8.80;99.90
27306;DHT22;14792;50.886;6.468;2022-09-27T04:44:22;8.80;99.90
27306;DHT22;14792;50.886;6.468;2022-09-27T04:47:24;8.80;99.90
27306;DHT22;14792;50.886;6.468;2022-09-27T04:50:27;8.70;99.90
27306;DHT22;14792;50.886;6.468;2022-09-27T04:53:28;8.70;99.90
27306;DHT22;14792;50.886;6.468;2022-09-27T04:56:30;8.70;99.90
27306;DHT22;14792;50.886;6.468;2022-09-27T04:59:31;8.70;99.90
27306;DHT22;14792;50.886;6.468;2022-09-27T05:02:33;8.70;99.90
27306;DHT22;14792;50.886;6.468;2022-09-27T05:05:34;8.70;99.90
27306;DHT22;14792;50.886;6.468;2022-09-27T05:08:36;8.70;99.90
27306;DHT22;14792;50.886;6.468;2022-09-27T05:11:38;8.70;99.90
27306;DHT22;14792;50.886;6.468;2022-09-27T05:14:39;8.70;99.90
27306;DHT22;14792;50.886;6.468;2022-09-27T05:17:41;8.70;99.90
27306;DHT22;14792;50.886;6.468;2022-09-27T05:20:42;8.80;99.90
27306;DHT22;14792;50.886;6.468;2022-09-27T05:23:44;8.80;99.90
27306;DHT22;14792;50.886;6.468;2022-09-27T05:26:46;8.80;99.90
27306;DHT22;14792;50.886;6.468;2022-09-27T05:29:47;8.80;99.90
27306;DHT22;14792;50.886;6.468;2022-09-27T05:32:49;8.80;99.90
27306;DHT22;14792;50.886;6.468;2022-09-27T05:35:51;8.80;99.90
27306;DHT22;14792;50.886;6.468;2022-09-27T05:38:52;8.80;99.90
27306;DHT22;14792;50.886;6.468;2022-09-27T05:41:53;8.80;99.90
27306;DHT22;14792;50.886;6.468;2022-09-27T05:44:55;8.80;99.90
27306;DHT22;14792;50.886;6.468;2022-09-27T05:47:57;8.80;99.90
27306;DHT22;14792;50.886;6.468;2022-09-27T05:50:58;8.90;99.90
27306;DHT22;14792;50.886;6.468;2022-09-27T05:54:00;8.90;99.90
27306;DHT22;14792;50.886;6.468;2022-09-27T05:57:01;8.90;99.90
27306;DHT22;14792;50.886;6.468;2022-09-27T06:00:03;8.90;99.90
27306;DHT22;14792;50.886;6.468;2022-09-27T06:03:05;9.00;99.90
27306;DHT22;14792;50.886;6.468;2022-09-27T06:06:06;9.00;99.90
27306;DHT22;14792;50.886;6.468;2022-09-27T06:09:11;9.00;99.90
27306;DHT22;14792;50.886;6.468;2022-09-27T06:12:12;9.00;99.90
27306;DHT22;14792;50.886;6.468;2022-09-27T06:15:14;9.00;99.90
27306;DHT22;14792;50.886;6.468;2022-09-27T06:18:15;9.10;99.90
27306;DHT22;14792;50.886;6.468;2022-09-27T06:21:17;9.10;99.90
27306;DHT22;14792;50.886;6.468;2022-09-27T06:24:19;9.10;99.90
27306;DHT22;14792;50.886;6.468;2022-09-27T06:27:21;9.10;99.90
27306;DHT22;14792;50.886;6.468;2022-09-27T06:30:22;9.10;99.90
27306;DHT22;14792;50.886;6.468;2022-09-27T06:33:24;9.10;99.90
27306;DHT22;14792;50.886;6.468;2022-09-27T06:36:25;9.10;99.90
27306;DHT22;14792;50.886;6.468;2022-09-27T06:39:27;9.10;99.90
27306;DHT22;14792;50.886;6.468;2022-09-27T06:42:28;9.10;99.90
27306;DHT22;14792;50.886;6.468;2022-09-27T06:45:31;9.10;99.90
27306;DHT22;14792;50.886;6.468;2022-09-27T06:48:32;9.10;99.90
27306;DHT22;14792;50.886;6.468;2022-09-27T06:51:33;9.20;99.90
27306;DHT22;14792;50.886;6.468;2022-09-27T06:54:35;9.20;99.90
27306;DHT22;14792;50.886;6.468;2022-09-27T06:57:36;9.30;99.90
27306;DHT22;14792;50.886;6.468;2022-09-27T07:00:56;9.30;99.90
27306;DHT22;14792;50.886;6.468;2022-09-27T07:03:58;9.30;99.90
27306;DHT22;14792;50.886;6.468;2022-09-27T07:06:59;9.30;99.90
27306;DHT22;14792;50.886;6.468;2022-09-27T07:10:01;9.30;99.90
27306;DHT22;14792;50.886;6.468;2022-09-27T07:13:09;9.30;99.90
27306;DHT22;14792;50.886;6.468;2022-09-27T07:16:10;9.30;99.90
27306;DHT22;14792;50.886;6.468;2022-09-27T07:19:11;9.30;99.90
27306;DHT22;14792;50.886;6.468;2022-09-27T07:22:13;9.30;99.90
27306;DHT22;14792;50.886;6.468;2022-09-27T07:25:14;9.40;99.90
27306;DHT22;14792;50.886;6.468;2022-09-27T07:28:17;9.50;99.90
27306;DHT22;14792;50.886;6.468;2022-09-27T07:31:18;9.50;99.90
27306;DHT22;14792;50.886;6.468;2022-09-27T07:34:19;9.50;99.90
27306;DHT22;14792;50.886;6.468;2022-09-27T07:37:21;9.60;99.90
27306;DHT22;14792;50.886;6.468;2022-09-27T07:40:23;9.80;99.90
27306;DHT22;14792;50.886;6.468;2022-09-27T07:43:24;9.90;99.90
27306;DHT22;14792;50.886;6.468;2022-09-27T07:46:26;9.80;99.90
27306;DHT22;14792;50.886;6.468;2022-09-27T07:49:27;9.90;99.90
27306;DHT22;14792;50.886;6.468;2022-09-27T07:52:29;10.00;99.90
27306;DHT22;14792;50.886;6.468;2022-09-27T07:55:30;10.10;99.90
27306;DHT22;14792;50.886;6.468;2022-09-27T07:58:32;10.20;99.90
27306;DHT22;14792;50.886;6.468;2022-09-27T08:01:34;10.40;99.90
27306;DHT22;14792;50.886;6.468;2022-09-27T08:04:35;10.40;99.90
27306;DHT22;14792;50.886;6.468;2022-09-27T08:07:37;10.30;99.90
27306;DHT22;14792;50.886;6.468;2022-09-27T08:10:38;10.40;99.90
27306;DHT22;14792;50.886;6.468;2022-09-27T08:13:43;10.40;99.90
27306;DHT22;14792;50.886;6.468;2022-09-27T08:16:44;10.70;99.90
27306;DHT22;14792;50.886;6.468;2022-09-27T08:19:46;11.10;99.90
27306;DHT22;14792;50.886;6.468;2022-09-27T08:22:48;11.10;99.90
27306;DHT22;14792;50.886;6.468;2022-09-27T08:25:53;11.10;99.90
27306;DHT22;14792;50.886;6.468;2022-09-27T08:28:54;10.70;99.90
27306;DHT22;14792;50.886;6.468;2022-09-27T08:31:55;10.70;99.90
27306;DHT22;14792;50.886;6.468;2022-09-27T08:34:57;10.80;99.90
27306;DHT22;14792;50.886;6.468;2022-09-27T08:37:59;10.90;99.90
27306;DHT22;14792;50.886;6.468;2022-09-27T08:41:22;10.80;99.90
27306;DHT22;14792;50.886;6.468;2022-09-27T08:47:42;11.20;99.90
27306;DHT22;14792;50.886;6.468;2022-09-27T08:50:41;11.20;99.90
27306;DHT22;14792;50.886;6.468;2022-09-27T08:53:46;11.40;99.90
27306;DHT22;14792;50.886;6.468;2022-09-27T08:56:47;11.50;99.90
27306;DHT22;14792;50.886;6.468;2022-09-27T08:59:54;11.70;99.90
27306;DHT22;14792;50.886;6.468;2022-09-27T09:02:53;11.90;99.90
27306;DHT22;14792;50.886;6.468;2022-09-27T09:06:08;11.70;99.90
27306;DHT22;14792;50.886;6.468;2022-09-27T09:25:30;11.50;99.90
27306;DHT22;14792;50.886;6.468;2022-09-27T09:31:57;11.40;99.90
27306;DHT22;14792;50.886;6.468;2022-09-27T09:34:58;11.70;99.90
27306;DHT22;14792;50.886;6.468;2022-09-27T09:37:59;11.70;99.90
27306;DHT22;14792;50.886;6.468;2022-09-27T09:44:29;12.10;99.90
27306;DHT22;14792;50.886;6.468;2022-09-27T09:47:41;12.10;99.90
27306;DHT22;14792;50.886;6.468;2022-09-27T09:50:44;11.90;99.90
27306;DHT22;14792;50.886;6.468;2022-09-27T09:53:57;11.90;99.90
27306;DHT22;14792;50.886;6.468;2022-09-27T10:00:17;11.90;99.90
27306;DHT22;14792;50.886;6.468;2022-09-27T10:03:19;12.00;99.90
27306;DHT22;14792;50.886;6.468;2022-09-27T10:06:21;11.90;99.90
27306;DHT22;14792;50.886;6.468;2022-09-27T10:09:26;11.80;99.90
27306;DHT22;14792;50.886;6.468;2022-09-27T10:12:27;11.70;99.90
27306;DHT22;14792;50.886;6.468;2022-09-27T10:15:29;11.60;99.90
27306;DHT22;14792;50.886;6.468;2022-09-27T10:18:30;11.50;99.90
27306;DHT22;14792;50.886;6.468;2022-09-27T10:21:31;11.40;99.90
27306;DHT22;14792;50.886;6.468;2022-09-27T10:24:41;11.40;99.90
27306;DHT22;14792;50.886;6.468;2022-09-27T10:27:47;11.40;99.90
27306;DHT22;14792;50.886;6.468;2022-09-27T10:30:53;11.60;99.90
27306;DHT22;14792;50.886;6.468;2022-09-27T10:33:59;11.70;99.90
27306;DHT22;14792;50.886;6.468;2022-09-27T10:37:01;11.80;99.90
27306;DHT22;14792;50.886;6.468;2022-09-27T10:40:15;11.90;99.90
27306;DHT22;14792;50.886;6.468;2022-09-27T10:43:18;11.80;99.90
27306;DHT22;14792;50.886;6.468;2022-09-27T10:46:11;11.90;99.90
27306;DHT22;14792;50.886;6.468;2022-09-27T10:52:23;12.10;99.90
27306;DHT22;14792;50.886;6.468;2022-09-27T10:55:25;12.00;99.90
27306;DHT22;14792;50.886;6.468;2022-09-27T10:58:36;12.00;99.90
27306;DHT22;14792;50.886;6.468;2022-09-27T11:01:38;11.90;99.90
27306;DHT22;14792;50.886;6.468;2022-09-27T11:04:38;11.70;99.90
27306;DHT22;14792;50.886;6.468;2022-09-27T11:07:52;11.90;99.90
27306;DHT22;14792;50.886;6.468;2022-09-27T11:11:04;12.00;99.90
27306;DHT22;14792;50.886;6.468;2022-09-27T11:14:05;12.00;99.90
27306;DHT22;14792;50.886;6.468;2022-09-27T11:17:16;12.00;99.90
27306;DHT22;14792;50.886;6.468;2022-09-27T11:20:20;12.20;99.90
27306;DHT22;14792;50.886;6.468;2022-09-27T11:26:56;12.20;99.90
27306;DHT22;14792;50.886;6.468;2022-09-27T11:30:15;12.10;99.90
27306;DHT22;14792;50.886;6.468;2022-09-27T11:43:26;11.40;99.90
27306;DHT22;14792;50.886;6.468;2022-09-27T11:46:28;11.20;99.90
27306;DHT22;14792;50.886;6.468;2022-09-27T11:56:26;11.00;99.90
27306;DHT22;14792;50.886;6.468;2022-09-27T12:15:15;11.50;99.90
27306;DHT22;14792;50.886;6.468;2022-09-27T12:18:34;11.60;99.90
27306;DHT22;14792;50.886;6.468;2022-09-27T12:21:34;11.60;99.90
27306;DHT22;14792;50.886;6.468;2022-09-27T12:24:36;11.70;99.90
27306;DHT22;14792;50.886;6.468;2022-09-27T12:27:48;11.80;99.90
27306;DHT22;14792;50.886;6.468;2022-09-27T12:30:49;11.60;99.90
27306;DHT22;14792;50.886;6.468;2022-09-27T12:37:13;11.70;99.90
27306;DHT22;14792;50.886;6.468;2022-09-27T12:40:24;11.70;99.90
27306;DHT22;14792;50.886;6.468;2022-09-27T12:43:26;11.70;99.90
27306;DHT22;14792;50.886;6.468;2022-09-27T12:46:53;11.70;99.90
27306;DHT22;14792;50.886;6.468;2022-09-27T12:49:57;11.90;99.90
27306;DHT22;14792;50.886;6.468;2022-09-27T12:53:12;11.50;99.90
27306;DHT22;14792;50.886;6.468;2022-09-27T13:03:11;10.80;99.90
27306;DHT22;14792;50.886;6.468;2022-09-27T13:09:58;10.70;99.90
27306;DHT22;14792;50.886;6.468;2022-09-27T13:12:56;10.90;99.90
27306;DHT22;14792;50.886;6.468;2022-09-27T13:15:58;11.00;99.90
27306;DHT22;14792;50.886;6.468;2022-09-27T13:18:59;11.10;99.90
27306;DHT22;14792;50.886;6.468;2022-09-27T13:25:49;11.40;99.90
27306;DHT22;14792;50.886;6.468;2022-09-27T13:34:57;11.20;99.90
27306;DHT22;14792;50.886;6.468;2022-09-27T13:37:57;11.20;99.90
27306;DHT22;14792;50.886;6.468;2022-09-27T13:41:14;11.20;99.90
27306;DHT22;14792;50.886;6.468;2022-09-27T13:47:47;11.50;99.90
27306;DHT22;14792;50.886;6.468;2022-09-27T13:50:51;11.60;99.90
27306;DHT22;14792;50.886;6.468;2022-09-27T13:53:58;11.80;99.90
27306;DHT22;14792;50.886;6.468;2022-09-27T13:56:58;12.00;99.90
27306;DHT22;14792;50.886;6.468;2022-09-27T14:00:00;12.40;99.90
27306;DHT22;14792;50.886;6.468;2022-09-27T14:06:18;13.20;99.90
27306;DHT22;14792;50.886;6.468;2022-09-27T14:09:19;13.10;99.90
27306;DHT22;14792;50.886;6.468;2022-09-27T14:12:23;12.90;99.90
27306;DHT22;14792;50.886;6.468;2022-09-27T14:15:26;12.60;99.90
27306;DHT22;14792;50.886;6.468;2022-09-27T14:18:27;12.60;99.90
27306;DHT22;14792;50.886;6.468;2022-09-27T14:21:32;12.30;99.90
27306;DHT22;14792;50.886;6.468;2022-09-27T14:27:37;12.40;99.90
27306;DHT22;14792;50.886;6.468;2022-09-27T14:30:39;12.30;99.90
27306;DHT22;14792;50.886;6.468;2022-09-27T14:33:40;12.10;99.90
27306;DHT22;14792;50.886;6.468;2022-09-27T14:36:42;12.10;99.90
27306;DHT22;14792;50.886;6.468;2022-09-27T14:40:04;11.80;99.90
27306;DHT22;14792;50.886;6.468;2022-09-27T14:43:05;11.30;99.90
27306;DHT22;14792;50.886;6.468;2022-09-27T14:46:20;10.80;99.90
27306;DHT22;14792;50.886;6.468;2022-09-27T14:49:17;10.60;99.90
27306;DHT22;14792;50.886;6.468;2022-09-27T14:52:16;10.50;99.90
27306;DHT22;14792;50.886;6.468;2022-09-27T14:55:18;10.40;99.90
27306;DHT22;14792;50.886;6.468;2022-09-27T14:58:19;10.30;99.90
27306;DHT22;14792;50.886;6.468;2022-09-27T15:01:20;10.20;99.90
27306;DHT22;14792;50.886;6.468;2022-09-27T15:04:21;10.20;99.90
27306;DHT22;14792;50.886;6.468;2022-09-27T15:07:23;10.20;99.90
27306;DHT22;14792;50.886;6.468;2022-09-27T15:10:25;10.30;99.90
27306;DHT22;14792;50.886;6.468;2022-09-27T15:13:26;10.20;99.90
27306;DHT22;14792;50.886;6.468;2022-09-27T15:16:28;10.20;99.90
27306;DHT22;14792;50.886;6.468;2022-09-27T15:19:30;10.30;99.90
27306;DHT22;14792;50.886;6.468;2022-09-27T15:22:35;10.50;99.90
27306;DHT22;14792;50.886;6.468;2022-09-27T15:25:55;11.00;99.90
27306;DHT22;14792;50.886;6.468;2022-09-27T15:28:40;11.20;99.90
27306;DHT22;14792;50.886;6.468;2022-09-27T15:31:39;11.40;99.90
27306;DHT22;14792;50.886;6.468;2022-09-27T15:34:40;11.40;99.90
27306;DHT22;14792;50.886;6.468;2022-09-27T15:37:42;11.40;99.90
27306;DHT22;14792;50.886;6.468;2022-09-27T15:43:51;11.40;99.90
27306;DHT22;14792;50.886;6.468;2022-09-27T15:46:52;11.30;99.90
27306;DHT22;14792;50.886;6.468;2022-09-27T15:49:54;11.10;99.90
27306;DHT22;14792;50.886;6.468;2022-09-27T15:52:55;11.20;99.90
27306;DHT22;14792;50.886;6.468;2022-09-27T15:55:57;11.10;99.90
27306;DHT22;14792;50.886;6.468;2022-09-27T15:58:58;11.00;99.90
27306;DHT22;14792;50.886;6.468;2022-09-27T16:02:02;11.00;99.90
27306;DHT22;14792;50.886;6.468;2022-09-27T16:05:02;10.90;99.90
27306;DHT22;14792;50.886;6.468;2022-09-27T16:08:03;10.80;99.90
27306;DHT22;14792;50.886;6.468;2022-09-27T16:11:05;10.70;99.90
27306;DHT22;14792;50.886;6.468;2022-09-27T16:14:06;10.70;99.90
27306;DHT22;14792;50.886;6.468;2022-09-27T16:17:08;10.80;99.90
27306;DHT22;14792;50.886;6.468;2022-09-27T16:20:19;10.90;99.90
27306;DHT22;14792;50.886;6.468;2022-09-27T16:23:20;10.80;99.90
27306;DHT22;14792;50.886;6.468;2022-09-27T16:26:21;10.80;99.90
27306;DHT22;14792;50.886;6.468;2022-09-27T16:29:23;10.90;99.90
27306;DHT22;14792;50.886;6.468;2022-09-27T16:32:25;10.90;99.90
27306;DHT22;14792;50.886;6.468;2022-09-27T16:35:26;10.90;99.90
27306;DHT22;14792;50.886;6.468;2022-09-27T16:38:28;10.90;99.90
27306;DHT22;14792;50.886;6.468;2022-09-27T16:41:29;10.90;99.90
27306;DHT22;14792;50.886;6.468;2022-09-27T16:44:31;10.80;99.90
27306;DHT22;14792;50.886;6.468;2022-09-27T16:47:33;10.80;99.90
27306;DHT22;14792;50.886;6.468;2022-09-27T16:50:34;10.80;99.90
27306;DHT22;14792;50.886;6.468;2022-09-27T16:53:54;10.90;99.90
27306;DHT22;14792;50.886;6.468;2022-09-27T16:56:56;10.90;99.90
27306;DHT22;14792;50.886;6.468;2022-09-27T16:59:57;10.80;99.90
27306;DHT22;14792;50.886;6.468;2022-09-27T17:02:59;10.80;99.90
27306;DHT22;14792;50.886;6.468;2022-09-27T17:06:00;10.80;99.90
27306;DHT22;14792;50.886;6.468;2022-09-27T17:09:02;10.70;99.90
27306;DHT22;14792;50.886;6.468;2022-09-27T17:12:03;10.80;99.90
27306;DHT22;14792;50.886;6.468;2022-09-27T17:15:05;10.80;99.90
27306;DHT22;14792;50.886;6.468;2022-09-27T17:18:07;10.80;99.90
27306;DHT22;14792;50.886;6.468;2022-09-27T17:21:08;10.80;99.90
27306;DHT22;14792;50.886;6.468;2022-09-27T17:24:10;10.80;99.90
27306;DHT22;14792;50.886;6.468;2022-09-27T17:27:11;10.90;99.90
27306;DHT22;14792;50.886;6.468;2022-09-27T17:30:13;11.00;99.90
27306;DHT22;14792;50.886;6.468;2022-09-27T17:33:14;10.90;99.90
27306;DHT22;14792;50.886;6.468;2022-09-27T17:36:17;11.00;99.90
27306;DHT22;14792;50.886;6.468;2022-09-27T17:39:20;11.00;99.90
27306;DHT22;14792;50.886;6.468;2022-09-27T17:42:20;10.90;99.90
27306;DHT22;14792;50.886;6.468;2022-09-27T17:45:22;10.80;99.90
27306;DHT22;14792;50.886;6.468;2022-09-27T17:48:23;10.90;99.90
27306;DHT22;14792;50.886;6.468;2022-09-27T17:51:45;10.90;99.90
27306;DHT22;14792;50.886;6.468;2022-09-27T17:54:44;10.80;99.90
27306;DHT22;14792;50.886;6.468;2022-09-27T17:57:46;10.70;99.90
27306;DHT22;14792;50.886;6.468;2022-09-27T18:00:47;10.70;99.90
27306;DHT22;14792;50.886;6.468;2022-09-27T18:03:52;10.70;99.90
27306;DHT22;14792;50.886;6.468;2022-09-27T18:06:53;10.50;99.90
27306;DHT22;14792;50.886;6.468;2022-09-27T18:09:54;10.30;99.90
27306;DHT22;14792;50.886;6.468;2022-09-27T18:12:56;10.20;99.90
27306;DHT22;14792;50.886;6.468;2022-09-27T18:15:58;10.10;99.90
27306;DHT22;14792;50.886;6.468;2022-09-27T18:18:59;10.00;99.90
27306;DHT22;14792;50.886;6.468;2022-09-27T18:22:01;10.00;99.90
27306;DHT22;14792;50.886;6.468;2022-09-27T18:25:02;9.90;99.90
27306;DHT22;14792;50.886;6.468;2022-09-27T18:28:04;9.90;99.90
27306;DHT22;14792;50.886;6.468;2022-09-27T18:31:09;9.80;99.90
27306;DHT22;14792;50.886;6.468;2022-09-27T18:34:10;9.80;99.90
27306;DHT22;14792;50.886;6.468;2022-09-27T18:37:12;9.80;99.90
27306;DHT22;14792;50.886;6.468;2022-09-27T18:40:13;9.80;99.90
27306;DHT22;14792;50.886;6.468;2022-09-27T18:43:15;9.80;99.90
27306;DHT22;14792;50.886;6.468;2022-09-27T18:46:17;9.90;99.90
27306;DHT22;14792;50.886;6.468;2022-09-27T18:49:18;9.90;99.90
27306;DHT22;14792;50.886;6.468;2022-09-27T18:52:20;9.90;99.90
27306;DHT22;14792;50.886;6.468;2022-09-27T18:55:21;9.90;99.90
27306;DHT22;14792;50.886;6.468;2022-09-27T18:58:23;9.90;99.90
27306;DHT22;14792;50.886;6.468;2022-09-27T19:01:24;9.90;99.90
27306;DHT22;14792;50.886;6.468;2022-09-27T19:04:26;9.90;99.90
27306;DHT22;14792;50.886;6.468;2022-09-27T19:07:28;9.80;99.90
27306;DHT22;14792;50.886;6.468;2022-09-27T19:10:29;9.90;99.90
27306;DHT22;14792;50.886;6.468;2022-09-27T19:13:31;9.90;99.90
27306;DHT22;14792;50.886;6.468;2022-09-27T19:16:33;9.90;99.90
27306;DHT22;14792;50.886;6.468;2022-09-27T19:19:34;9.80;99.90
27306;DHT22;14792;50.886;6.468;2022-09-27T19:22:36;9.80;99.90
27306;DHT22;14792;50.886;6.468;2022-09-27T19:25:38;9.80;99.90
27306;DHT22;14792;50.886;6.468;2022-09-27T19:28:40;9.80;99.90
27306;DHT22;14792;50.886;6.468;2022-09-27T19:31:40;9.80;99.90
27306;DHT22;14792;50.886;6.468;2022-09-27T19:34:42;9.80;99.90
27306;DHT22;14792;50.886;6.468;2022-09-27T19:37:43;9.80;99.90
27306;DHT22;14792;50.886;6.468;2022-09-27T19:40:51;9.80;99.90
27306;DHT22;14792;50.886;6.468;2022-09-27T19:43:50;9.80;99.90
27306;DHT22;14792;50.886;6.468;2022-09-27T19:46:52;9.70;99.90
27306;DHT22;14792;50.886;6.468;2022-09-27T19:49:54;9.70;99.90
27306;DHT22;14792;50.886;6.468;2022-09-27T19:52:55;9.70;99.90
27306;DHT22;14792;50.886;6.468;2022-09-27T19:56:03;9.80;99.90
27306;DHT22;14792;50.886;6.468;2022-09-27T19:59:04;9.70;99.90
27306;DHT22;14792;50.886;6.468;2022-09-27T20:02:06;9.80;99.90
27306;DHT22;14792;50.886;6.468;2022-09-27T20:05:07;9.70;99.90
27306;DHT22;14792;50.886;6.468;2022-09-27T20:08:09;9.80;99.90
27306;DHT22;14792;50.886;6.468;2022-09-27T20:11:11;9.80;99.90
27306;DHT22;14792;50.886;6.468;2022-09-27T20:14:12;9.70;99.90
27306;DHT22;14792;50.886;6.468;2022-09-27T20:17:13;9.70;99.90
27306;DHT22;14792;50.886;6.468;2022-09-27T20:20:15;9.80;99.90
27306;DHT22;14792;50.886;6.468;2022-09-27T20:23:17;9.80;99.90
27306;DHT22;14792;50.886;6.468;2022-09-27T20:26:19;9.80;99.90
27306;DHT22;14792;50.886;6.468;2022-09-27T20:29:20;9.80;99.90
27306;DHT22;14792;50.886;6.468;2022-09-27T20:32:21;9.80;99.90
27306;DHT22;14792;50.886;6.468;2022-09-27T20:35:23;9.80;99.90
27306;DHT22;14792;50.886;6.468;2022-09-27T20:38:25;9.80;99.90
27306;DHT22;14792;50.886;6.468;2022-09-27T20:41:27;9.80;99.90
27306;DHT22;14792;50.886;6.468;2022-09-27T20:44:28;9.80;99.90
27306;DHT22;14792;50.886;6.468;2022-09-27T20:47:30;9.60;99.90
27306;DHT22;14792;50.886;6.468;2022-09-27T20:50:31;9.40;99.90
27306;DHT22;14792;50.886;6.468;2022-09-27T20:53:33;9.30;99.90
27306;DHT22;14792;50.886;6.468;2022-09-27T20:56:35;9.10;99.90
27306;DHT22;14792;50.886;6.468;2022-09-27T20:59:36;9.00;99.90
27306;DHT22;14792;50.886;6.468;2022-09-27T21:02:37;9.00;99.90
27306;DHT22;14792;50.886;6.468;2022-09-27T21:05:39;9.00;99.90
27306;DHT22;14792;50.886;6.468;2022-09-27T21:08:41;8.90;99.90
27306;DHT22;14792;50.886;6.468;2022-09-27T21:11:43;8.90;99.90
27306;DHT22;14792;50.886;6.468;2022-09-27T21:14:44;8.80;99.90
27306;DHT22;14792;50.886;6.468;2022-09-27T21:17:45;8.70;99.90
27306;DHT22;14792;50.886;6.468;2022-09-27T21:20:54;8.60;99.90
27306;DHT22;14792;50.886;6.468;2022-09-27T21:23:55;8.60;99.90
27306;DHT22;14792;50.886;6.468;2022-09-27T21:26:56;8.60;99.90
27306;DHT22;14792;50.886;6.468;2022-09-27T21:29:57;8.50;99.90
27306;DHT22;14792;50.886;6.468;2022-09-27T21:32:59;8.50;99.90
27306;DHT22;14792;50.886;6.468;2022-09-27T21:36:01;8.40;99.90
27306;DHT22;14792;50.886;6.468;2022-09-27T21:39:03;8.40;99.90